Flight Track Log - Related Links

Times and Time Zones

All times are in EDT time to prevent confusion due to time zone crossing. See the UAL1635 flight status page for this flight to view local times or setup timezone preferences in your user account.

Time Position Orientation Groundspeed Altitude Reporting Facility
EDT Latitude Longitude Course Direction KTS MPH feet Rate Location/Type
Wed 06:39:52 PM 38.9130 -77.4350 177° South 173 199 1,900  Level FlightAware
Wed 06:40:22 PM 38.8860 -77.4330 177° South 193 222 3,700 3,055 Climbing FlightAware
Wed 06:40:47 PM 38.8590 -77.4300 175° South 233 268 4,700 2,727 Climbing FlightAware
Wed 06:41:17 PM 38.8240 -77.4260 175° South 260 299 6,200 3,200 Climbing FlightAware
Wed 06:41:47 PM 38.7860 -77.4200 173° South 277 319 7,900 3,382 Climbing FlightAware
Wed 06:42:12 PM 38.7610 -77.4270 192° South 260 299 9,300 3,138 Climbing FlightAware
Wed 06:42:52 PM 38.7180 -77.4440 197° South 286 329 11,300 3,075 Climbing FlightAware
Wed 06:43:32 PM 38.6620 -77.4650 196° South 307 353 13,400 2,925 Climbing FlightAware
Wed 06:44:12 PM 38.6130 -77.4840 197° South 318 366 15,200 2,753 Climbing FlightAware
Wed 06:44:57 PM 38.5560 -77.5060 197° South 325 374 17,300 3,106 Climbing FlightAware
Wed 06:45:37 PM 38.4860 -77.5330 197° South 339 390 19,600 3,284 Climbing FlightAware
Wed 06:46:32 PM 38.4020 -77.5660 197° South 336 387 22,500 2,945 Climbing FlightAware
Wed 06:47:27 PM 38.3340 -77.6210 212° Southwest 329 379 25,000 2,000 Climbing FlightAware
Wed 06:48:17 PM 38.2750 -77.6720 214° Southwest 327 376 26,000 667 Climbing FlightAware
Wed 06:48:57 PM 38.2200 -77.7190 214° Southwest 327 376 26,000  Level FlightAware
Wed 06:49:47 PM 38.1580 -77.7720 214° Southwest 327 376 26,000  Level FlightAware
Wed 06:50:57 PM 38.0680 -77.8500 214° Southwest 327 376 26,000  Level FlightAware
Wed 06:51:47 PM 38.0110 -77.8980 214° Southwest 329 379 26,000  Level FlightAware
Wed 06:52:27 PM 37.9600 -77.9420 214° Southwest 328 377 26,000  Level FlightAware
Wed 06:53:07 PM 37.9090 -77.9850 214° Southwest 326 375 26,000  Level FlightAware
Wed 06:54:07 PM 37.8240 -78.0570 214° Southwest 327 376 26,000  Level FlightAware
Wed 06:54:42 PM 37.7810 -78.0940 214° Southwest 327 376 26,000  Level FlightAware
Wed 06:55:27 PM 37.7230 -78.1430 214° Southwest 330 380 26,000  Level FlightAware
Wed 06:56:12 PM 37.6680 -78.1890 214° Southwest 330 380 26,000 -261 Level FlightAware
Wed 06:57:22 PM 37.5840 -78.2600 214° Southwest 331 381 25,500 -864 Descending FlightAware
Wed 06:58:17 PM 37.6120 -78.2360 34° Northeast 343 395 24,200 -971 Descending FlightAware
Wed 06:59:07 PM 37.4440 -78.3780 214° Southwest 336 387 23,800 -240 Descending FlightAware
Wed 06:59:57 PM 37.3890 -78.4240 214° Southwest 336 387 23,800  Level FlightAware
Wed 07:00:37 PM 37.3450 -78.4620 214° Southwest 336 387 23,800  Level FlightAware
Wed 07:01:17 PM 37.3020 -78.4990 214° Southwest 336 387 23,800  Level FlightAware
Wed 07:01:57 PM 37.2580 -78.5360 214° Southwest 336 387 23,800  Level FlightAware
Wed 07:02:37 PM 37.2140 -78.5730 214° Southwest 336 387 23,800 -1,862 Level FlightAware
Wed 07:02:55 PM 37.1461 -78.6275 214° Southwest 346 398 22,000 -1,385 Descending Washington Center
Wed 07:03:55 PM 37.0653 -78.6944 213° Southwest 351 404 22,000 -50 Level Washington Center
Wed 07:04:55 PM 36.9864 -78.7589 213° Southwest 351 404 21,900 -500 Descending Washington Center
Wed 07:05:55 PM 36.9053 -78.8231 212° Southwest 351 404 21,000 -1,250 Descending Washington Center
Wed 07:06:55 PM 36.8381 -78.9139 227° Southwest 336 387 19,400 -1,600 Descending Washington Center
Wed 07:07:55 PM 36.7878 -78.9944 232° Southwest 319 367 17,800 -1,600 Descending Washington Center
Wed 07:08:55 PM 36.7397 -79.0728 233° Southwest 307 353 16,200 -1,250 Descending Washington Center
Wed 07:09:55 PM 36.6958 -79.1511 235° Southwest 290 334 15,300 -950 Descending Washington Center
Wed 07:10:55 PM 36.6225 -79.1531 181° South 266 306 14,300 -989 Descending Washington Center
Wed 07:11:26 PM 36.5781 -79.1094 142° Southeast 354 407 13,800 -1,000 Descending Washington Center
Wed 07:11:55 PM 36.5433 -79.0822 148° Southeast 272 313 13,300 -1,416 Descending Washington Center
Wed 07:12:55 PM 36.4683 -79.0092 142° Southeast 312 359 11,700 -1,165 Descending Washington Center
Wed 07:18:52 PM 36.1060 -78.6670 142° Southeast 227 261 5,200 -1,099 Descending FlightAware
Wed 07:19:17 PM 36.0870 -78.6480 141° Southeast 220 253 4,700 -1,418 Descending FlightAware
Wed 07:19:47 PM 36.0600 -78.6280 149° Southeast 202 232 3,900 -1,500 Descending FlightAware
Wed 07:20:17 PM 36.0340 -78.6300 184° South 198 228 3,200 -1,200 Descending FlightAware
Wed 07:20:42 PM 36.0120 -78.6350 190° South 180 207 2,800 -750 Descending FlightAware
Wed 07:20:57 PM 36.0020 -78.6440 216° Southwest 171 197 2,700 -533 Descending FlightAware
Wed 07:21:27 PM 35.9880 -78.6620 226° Southwest 155 178 2,400 -655 Descending FlightAware
Wed 07:21:52 PM 35.9740 -78.6790 225° Southwest 148 170 2,100 -327 Descending FlightAware
Wed 07:22:22 PM 35.9600 -78.6970 226° Southwest 151 174 2,100 -400 Level FlightAware
Wed 07:22:52 PM 35.9460 -78.7140 225° Southwest 145 167 1,700 -436 Descending FlightAware
Wed 07:23:17 PM 35.9350 -78.7270 224° Southwest 145 167 1,700  Level FlightAware

Login

Don't have an account? Register now (free) for customized features, flight alerts, and more!